Pegasus Voyager — C6AP3 — position and weather

sailwx.info

Track history (hours):
 
Tides and Currents Weather Stations Pressure Air Temp Water Temp Dewpoint Dewpoint Depression Visibility Wind Speed Wind Dir Waves Ship Positions

Pegasus Voyager

Last reported at 2017-Sep-25 11:00 UTC. Time now 2017-Sep-25 11:24 UTC.
Position N 37°37' W 122°58'.

Length 276 m; draft 9.8 m.

Type: Ship (hazmat cat C). MMSI: 311000111.

Date/timePositionNaut miles runAvg speedWind from/ knotsBaromVisibWave heightAir tempDewpointWater temp
2017-Sep-25 11:00N 37°37' W 122°58'5 9.3
2017-Sep-25 10:30N 37°40' W 122°53'5 9.3
2017-Sep-25 10:00N 37°43' W 122°48'510.6
2017-Sep-25 09:30N 37°45' W 122°42'510.2
2017-Sep-25 09:00N 37°47' W 122°36'612.4
2017-Sep-25 08:30N 37°49' W 122°29'4 9.0
2017-Sep-25 08:00N 37°53' W 122°25'3 5.8
2017-Sep-25 07:30N 37°56' W 122°25'0 0.0
2017-Sep-25 01:56N 37°56' W 122°25'0 0.0
2017-Sep-24 02:59N 37°56' W 122°25'0 0.0
2017-Sep-24 02:30N 37°56' W 122°25'2 3.1
2017-Sep-24 02:00N 37°54' W 122°25'3 6.7
2017-Sep-24 01:30N 37°51' W 122°25'4 7.8
2017-Sep-24 01:00N 37°49' W 122°29'5 9.2
2017-Sep-24 00:30N 37°47' W 122°35'612.0
2017-Sep-24 00:00N 37°44' W 122°41'5 9.4
2017-Sep-23 23:30N 37°41' W 122°46'5 9.7
2017-Sep-23 23:00N 37°38' W 122°51'5 9.3
2017-Sep-23 22:30N 37°36' W 122°56'5 9.3
2017-Sep-23 22:00N 37°33' W 123°01'510.7
2017-Sep-23 21:30N 37°30' W 123°06'612.4
2017-Sep-23 21:00N 37°25' W 123°10'712.9
2017-Sep-23 20:30N 37°18' W 123°13'612.6
2017-Sep-23 20:00N 37°12' W 123°14'207 4.9
2017-Sep-22 02:00N 34°02' W 121°32'510.3
2017-Sep-22 01:30N 34°00' W 121°26'510.1
2017-Sep-22 01:00N 33°58' W 121°21'510.2
2017-Sep-22 00:30N 33°57' W 121°15'5 9.9
2017-Sep-22 00:00N 33°55' W 121°09'510.1
2017-Sep-21 23:30N 33°54' W 121°03'510.1
2017-Sep-21 23:00N 33°52' W 120°58'2 4.4
2017-Sep-21 22:30N 33°52' W 120°55'2 4.2
2017-Sep-21 22:00N 33°52' W 120°52'3 6.9
2017-Sep-21 21:30N 33°51' W 120°48'4 8.4
2017-Sep-21 21:00N 33°50' W 120°43'510.4
2017-Sep-21 20:30N 33°48' W 120°37'510.4
2017-Sep-21 20:00N 33°47' W 120°31'4 8.9
2017-Sep-21 19:30N 33°43' W 120°29'510.2
2017-Sep-21 19:00N 33°38' W 120°29'4 8.3
2017-Sep-21 18:30N 33°35' W 120°26'510.5
2017-Sep-21 17:59N 33°35' W 120°19'510.2
2017-Sep-21 17:30N 33°35' W 120°13'610.7
2017-Sep-21 16:58N 33°37' W 120°07'511.4
2017-Sep-21 16:30N 33°38' W 120°00'713.7
2017-Sep-21 16:00N 33°39' W 119°52'714.1
2017-Sep-21 15:30N 33°40' W 119°44'612.4
2017-Sep-21 15:00N 33°42' W 119°37'611.7
2017-Sep-21 14:30N 33°44' W 119°30'611.7
2017-Sep-21 14:00N 33°45' W 119°24'711.7
2017-Sep-21 13:27N 33°47' W 119°16'512.1
2017-Sep-21 13:00N 33°48' W 119°10'611.4
2017-Sep-21 12:30N 33°49' W 119°03'611.3
2017-Sep-21 12:00N 33°48' W 118°56'611.0
2017-Sep-21 11:30N 33°46' W 118°50'510.9
2017-Sep-21 11:00N 33°45' W 118°43'510.3
2017-Sep-21 10:30N 33°50' W 118°40'611.5
2017-Sep-21 10:00N 33°51' W 118°33'510.0
2017-Sep-21 09:29N 33°54' W 118°28'1 0.1
2017-Sep-21 03:40N 33°54' W 118°27'0 0.0
2017-Sep-21 03:30N 33°54' W 118°27'0 0.0
2017-Sep-21 03:00N 33°54' W 118°27'0 0.0
2017-Sep-21 02:30N 33°54' W 118°27'0 0.0
2017-Sep-21 02:00N 33°54' W 118°27'0 0.0
2017-Sep-21 01:30N 33°54' W 118°27'0 0.0
2017-Sep-21 01:00N 33°54' W 118°27'0 0.0
2017-Sep-21 00:30N 33°54' W 118°27'0 0.0
2017-Sep-21 00:00N 33°54' W 118°27'0 0.0
2017-Sep-20 23:30N 33°54' W 118°27'0 0.0
2017-Sep-20 23:00N 33°54' W 118°27'0 0.0
2017-Sep-20 22:30N 33°54' W 118°27'0 0.0
2017-Sep-20 22:00N 33°54' W 118°27'0 0.0
2017-Sep-20 21:28N 33°54' W 118°27'0 0.0
2017-Sep-20 21:00N 33°54' W 118°27'0 0.0
2017-Sep-20 20:30N 33°54' W 118°27'0 0.0
2017-Sep-20 20:00N 33°54' W 118°27'0 0.0
2017-Sep-20 19:30N 33°54' W 118°27'0 0.7
2017-Sep-20 19:00N 33°54' W 118°27'1 2.5
2017-Sep-20 18:30N 33°53' W 118°28'2 3.4
2017-Sep-20 18:00N 33°52' W 118°30'3 6.6
2017-Sep-20 17:30N 33°50' W 118°32'510.5
2017-Sep-20 17:00N 33°46' W 118°36'510.6
2017-Sep-20 16:30N 33°40' W 118°38'510.2
2017-Sep-20 16:00N 33°36' W 118°41'510.8
2017-Sep-20 15:30N 33°31' W 118°43'510.7
2017-Sep-20 15:00N 33°26' W 118°43'2710.2
2017-Sep-20 12:20N 33°06' W 118°21'411.2
2017-Sep-20 12:00N 33°05' W 118°16'611.3
2017-Sep-20 11:30N 33°05' W 118°09'611.5
2017-Sep-20 11:01N 33°05' W 118°03'511.0
2017-Sep-20 10:31N 33°05' W 117°56'2 4.3
2017-Sep-20 10:01N 33°06' W 117°54'1 1.4
2017-Sep-20 09:30N 33°06' W 117°53'1 2.3
2017-Sep-20 09:01N 33°05' W 117°51'1 2.1
2017-Sep-20 08:30N 33°05' W 117°50'1 1.4
2017-Sep-20 08:00N 33°04' W 117°50'1 1.1
2017-Sep-20 07:30N 33°04' W 117°49'1 1.1
2017-Sep-20 07:00N 33°04' W 117°49'0 1.0
2017-Sep-20 06:30N 33°03' W 117°48'1 1.4
2017-Sep-20 06:00N 33°03' W 117°48'1 1.2
2017-Sep-20 05:30N 33°03' W 117°47'1 1.2
2017-Sep-20 05:01N 33°02' W 117°47'1 1.2
2017-Sep-20 04:30N 33°02' W 117°46'1 1.2
2017-Sep-20 04:00N 33°01' W 117°46'1 1.3
2017-Sep-20 03:30N 33°01' W 117°46'1 1.3
2017-Sep-20 03:00N 33°00' W 117°45'1 1.2
2017-Sep-20 02:30N 32°60' W 117°45'1 1.2
2017-Sep-20 02:00N 32°59' W 117°44'1 1.1
2017-Sep-20 01:31N 32°59' W 117°44'0 0.9
2017-Sep-20 01:01N 32°58' W 117°44'0 0.8
2017-Sep-20 00:30N 32°58' W 117°43'0 0.9
2017-Sep-20 00:00N 32°58' W 117°43'1 1.5
2017-Sep-19 23:31N 32°57' W 117°43'1 1.2
2017-Sep-19 23:01N 32°57' W 117°44'1 1.0
2017-Sep-19 22:30N 32°57' W 117°45'0 0.8
2017-Sep-19 22:00N 32°57' W 117°45'1 1.0
2017-Sep-19 21:30N 32°57' W 117°46'1 1.1
2017-Sep-19 21:01N 32°57' W 117°46'1 1.3
2017-Sep-19 20:31N 32°58' W 117°47'1 1.2
2017-Sep-19 20:00N 32°58' W 117°48'1 1.3
2017-Sep-19 19:31N 32°58' W 117°48'1 1.1
2017-Sep-19 19:00N 32°58' W 117°49'1 1.2
2017-Sep-19 18:30N 32°59' W 117°50'1 1.1
2017-Sep-19 18:00N 32°59' W 117°50'0 0.9
2017-Sep-19 17:30N 32°59' W 117°51'0 0.8
2017-Sep-19 17:00N 32°59' W 117°51'0 0.8
2017-Sep-19 16:30N 32°59' W 117°52'0 0.5
2017-Sep-19 16:00N 32°59' W 117°52'0 0.5
2017-Sep-19 15:30N 32°58' W 117°52'0 0.6
2017-Sep-19 15:01N 32°59' W 117°53'1 2.2
2017-Sep-19 14:31N 32°59' W 117°53'2 4.4
2017-Sep-19 14:00N 33°01' W 117°55'2 4.6
2017-Sep-19 13:31N 33°04' W 117°55'2 4.9
2017-Sep-19 13:01N 33°06' W 117°57'3 6.4
2017-Sep-19 12:30N 33°09' W 117°58'2 3.8
2017-Sep-19 12:00N 33°11' W 117°58'0 0.1
2017-Sep-19 11:30N 33°11' W 117°58'0 0.2
2017-Sep-19 11:01N 33°11' W 117°58'0 0.9
2017-Sep-19 10:30N 33°11' W 117°59'510.3
2017-Sep-19 10:00N 33°07' W 118°04'5 9.8
2017-Sep-19 09:30N 33°05' W 118°09'510.3
2017-Sep-19 09:01N 33°05' W 118°15'5 9.9
2017-Sep-19 08:30N 33°06' W 118°21'510.0
2017-Sep-19 08:00N 33°08' W 118°26'610.0
2017-Sep-19 07:24N 33°11' W 118°33'510.1
2017-Sep-19 06:56N 33°13' W 118°38'4 9.8
2017-Sep-19 06:29N 33°14' W 118°43'510.3
2017-Sep-19 06:00N 33°14' W 118°49'5 9.6
2017-Sep-19 05:29N 33°12' W 118°54'510.1
2017-Sep-19 05:00N 33°10' W 118°59'510.2
2017-Sep-19 04:31N 33°07' W 119°04'5 9.9
2017-Sep-19 04:00N 33°04' W 119°09'510.3
2017-Sep-19 03:31N 33°01' W 119°14'510.1
2017-Sep-19 03:00N 32°59' W 119°19'5 9.8
2017-Sep-19 02:30N 32°56' W 119°24'5 9.1
2017-Sep-19 01:59N 32°56' W 119°30'5 9.9
2017-Sep-19 01:31N 32°58' W 119°35'510.2
2017-Sep-19 01:00N 32°59' W 119°41'1215.0
2017-Sep-19 00:11N 33°02' W 119°56'411.9
2017-Sep-18 23:49N 33°03' W 120°00'410.6
2017-Sep-18 23:25N 33°06' W 120°04'3 6.8
2017-Sep-18 23:00N 33°07' W 120°07'5 7.4
2017-Sep-18 22:17N 33°11' W 120°12'1 2.9
2017-Sep-18 22:00N 33°12' W 120°12'1 2.1
2017-Sep-18 21:30N 33°12' W 120°13'2 4.2
2017-Sep-18 21:00N 33°14' W 120°15'713.5
2017-Sep-18 20:31N 33°19' W 120°21'714.0
2017-Sep-18 20:00N 33°24' W 120°26'713.9
2017-Sep-18 19:30N 33°29' W 120°32'612.6
2017-Sep-18 19:00N 33°33' W 120°37'610.8
2017-Sep-18 18:30N 33°38' W 120°42'612.5
2017-Sep-18 18:01N 33°42' W 120°47'713.8
2017-Sep-18 17:30N 33°47' W 120°53'510.2
2017-Sep-18 16:58N 33°52' W 120°56'611.7
2017-Sep-18 16:30N 33°56' W 120°59'815.6
2017-Sep-18 16:00N 34°03' W 121°04'815.6
2017-Sep-18 15:31N 34°10' W 121°09'815.5
2017-Sep-18 15:00N 34°16' W 121°14'715.1
2017-Sep-18 14:30N 34°23' W 121°18'815.0
2017-Sep-18 14:00N 34°29' W 121°23'815.5
2017-Sep-18 13:31N 34°36' W 121°28'815.4
2017-Sep-18 13:00N 34°42' W 121°33'715.0
2017-Sep-18 12:31N 34°49' W 121°37'815.1
2017-Sep-18 12:00N 34°56' W 121°42'815.1
2017-Sep-18 11:30N 35°02' W 121°47'815.1
2017-Sep-18 11:01N 35°09' W 121°51'815.0
2017-Sep-18 10:30N 35°15' W 121°56'815.2
2017-Sep-18 09:58N 35°22' W 122°01'715.6
2017-Sep-18 09:30N 35°28' W 122°05'12415.4
2017-Sep-18 01:25N 37°21' W 123°11'615.3
2017-Sep-18 01:00N 37°27' W 123°08'714.0
2017-Sep-18 00:30N 37°33' W 123°04'5 9.3
2017-Sep-18 00:00N 37°36' W 122°60'5 9.4
2017-Sep-17 23:30N 37°39' W 122°55'4 7.2
2017-Sep-17 23:00N 37°41' W 122°51'5 9.7
2017-Sep-17 22:30N 37°43' W 122°46'4 8.1
2017-Sep-17 22:00N 37°46' W 122°42'5 9.4
2017-Sep-17 21:31N 37°47' W 122°36'714.2
2017-Sep-17 21:00N 37°50' W 122°28'4 7.3
2017-Sep-17 20:30N 37°53' W 122°25'3 5.4
2017-Sep-17 19:58N 37°56' W 122°25'0 0.1
2017-Sep-17 19:28N 37°56' W 122°25'0 0.0
2017-Sep-17 18:55N 37°56' W 122°25'0 0.0
2017-Sep-17 18:28N 37°56' W 122°25'0 0.0
2017-Sep-17 17:58N 37°56' W 122°25'0 0.0
2017-Sep-17 17:28N 37°56' W 122°25'0 0.0
2017-Sep-17 16:58N 37°56' W 122°25'0 0.0
2017-Sep-17 16:28N 37°56' W 122°25'0 0.0
2017-Sep-17 15:58N 37°56' W 122°25'0 0.0
2017-Sep-17 15:28N 37°56' W 122°25'0 0.0
2017-Sep-17 14:43N 37°56' W 122°25'0 0.0
2017-Sep-17 14:28N 37°56' W 122°25'0 0.0
2017-Sep-17 13:58N 37°56' W 122°25'0 0.0
2017-Sep-17 13:28N 37°56' W 122°25'0 0.0
2017-Sep-17 12:58N 37°56' W 122°25'0 0.0
2017-Sep-17 12:28N 37°56' W 122°25'0 0.0
2017-Sep-17 11:58N 37°56' W 122°25'0 0.0
2017-Sep-17 11:28N 37°56' W 122°25'0 0.0
2017-Sep-17 10:52N 37°56' W 122°25'0 0.0
2017-Sep-17 10:28N 37°56' W 122°25'0 0.0
2017-Sep-17 09:58N 37°56' W 122°25'0 0.0
2017-Sep-17 09:28N 37°56' W 122°25'0 0.0
2017-Sep-17 08:58N 37°56' W 122°25'0 0.0
2017-Sep-17 08:28N 37°56' W 122°25'0 0.0
2017-Sep-17 07:58N 37°56' W 122°25'0 0.0
2017-Sep-17 07:25N 37°56' W 122°25'0 0.0
2017-Sep-17 06:58N 37°56' W 122°25'0 0.0
2017-Sep-17 06:28N 37°56' W 122°25'0 0.0
2017-Sep-17 05:55N 37°56' W 122°25'0 0.0
2017-Sep-17 05:28N 37°56' W 122°25'0 0.0
2017-Sep-17 04:52N 37°56' W 122°25'0 0.0
2017-Sep-17 04:28N 37°56' W 122°25'0 0.0
2017-Sep-17 03:58N 37°56' W 122°25'0 0.0
2017-Sep-17 03:22N 37°56' W 122°25'0 0.0
2017-Sep-17 02:58N 37°56' W 122°25'0 0.0
2017-Sep-17 02:25N 37°56' W 122°25'0 0.0
2017-Sep-17 01:58N 37°56' W 122°25'0 0.0
2017-Sep-17 01:22N 37°56' W 122°25'0 0.0
2017-Sep-17 00:58N 37°56' W 122°25'0 0.0
2017-Sep-17 00:22N 37°56' W 122°25'0 0.0
2017-Sep-16 23:58N 37°56' W 122°25'0 0.0
2017-Sep-16 23:28N 37°56' W 122°25'0 0.0
2017-Sep-16 22:58N 37°56' W 122°25'0 0.0
2017-Sep-16 22:22N 37°56' W 122°25'0 0.0
2017-Sep-16 21:58N 37°56' W 122°25'0 0.0
2017-Sep-16 21:25N 37°56' W 122°25'0 0.0
2017-Sep-16 20:58N 37°56' W 122°25'0 0.0
2017-Sep-16 20:25N 37°56' W 122°25'0 0.0
2017-Sep-16 19:58N 37°56' W 122°25'0 0.0
2017-Sep-16 19:28N 37°56' W 122°25'0 0.0
2017-Sep-16 18:58N 37°56' W 122°25'0 0.0
2017-Sep-16 18:28N 37°56' W 122°25'0 0.0
2017-Sep-16 17:58N 37°56' W 122°25'0 0.0
2017-Sep-16 17:28N 37°56' W 122°25'0 0.0
2017-Sep-16 16:58N 37°56' W 122°25'0 0.0
2017-Sep-16 16:30N 37°56' W 122°25'0 0.7
2017-Sep-16 16:00N 37°55' W 122°25'3 6.5
2017-Sep-16 15:30N 37°52' W 122°25'4 7.8
2017-Sep-16 15:00N 37°49' W 122°28'612.8
2017-Sep-16 14:30N 37°47' W 122°36'611.8
2017-Sep-16 14:00N 37°44' W 122°42'5 9.5
2017-Sep-16 13:30N 37°41' W 122°47'5 9.7
2017-Sep-16 13:00N 37°38' W 122°52'5 9.9
2017-Sep-16 12:30N 37°35' W 122°57'5 9.6
2017-Sep-16 12:00N 37°33' W 123°02'612.4
2017-Sep-16 11:31N 37°29' W 123°08'713.5
2017-Sep-16 11:00N 37°23' W 123°11'713.8
2017-Sep-16 10:30N 37°16' W 123°14'713.6
2017-Sep-16 10:00N 37°09' W 123°16'713.5
2017-Sep-16 09:30N 37°03' W 123°19'713.4
2017-Sep-16 09:00N 36°57' W 123°21'612.5
2017-Sep-16 08:30N 36°51' W 123°23'812.7
2017-Sep-16 07:55N 36°44' W 123°27'712.6
2017-Sep-16 07:19N 36°37' W 123°31'22 3.4
2017-Sep-16 00:54N 36°18' W 123°44'9 1.0
2017-Sep-15 15:34N 36°27' W 123°42'0 1.3
2017-Sep-15 15:25N 36°27' W 123°42'1 1.3
2017-Sep-15 14:59N 36°27' W 123°42'1 1.4
2017-Sep-15 14:30N 36°28' W 123°42'1 1.3
2017-Sep-15 14:00N 36°29' W 123°42'1 1.1
2017-Sep-15 13:30N 36°29' W 123°42'1 1.1
2017-Sep-15 13:00N 36°30' W 123°41'1 1.4
2017-Sep-15 12:30N 36°30' W 123°41'1 1.5
2017-Sep-15 12:00N 36°31' W 123°40'1 1.6
2017-Sep-15 11:22N 36°32' W 123°39'  
Track history (hours):
 
Tides and Currents Weather Stations Pressure Air Temp Water Temp Dewpoint Dewpoint Depression Visibility Wind Speed Wind Dir Waves Ship Positions

Pegasus Voyager

Last reported at 2017-Sep-25 11:00 UTC. Time now 2017-Sep-25 11:24 UTC.
Position N 37°37' W 122°58'.

Length 276 m; draft 9.8 m.

Type: Ship (hazmat cat C). MMSI: 311000111.

Date/timePositionNaut miles runAvg speedWind from/ knotsBaromVisibWave heightAir tempDewpointWater temp
2017-Sep-25 11:00N 37°37' W 122°58'5 9.3
2017-Sep-25 10:30N 37°40' W 122°53'5 9.3
2017-Sep-25 10:00N 37°43' W 122°48'510.6
2017-Sep-25 09:30N 37°45' W 122°42'510.2
2017-Sep-25 09:00N 37°47' W 122°36'612.4
2017-Sep-25 08:30N 37°49' W 122°29'4 9.0
2017-Sep-25 08:00N 37°53' W 122°25'3 5.8
2017-Sep-25 07:30N 37°56' W 122°25'0 0.0
2017-Sep-25 01:56N 37°56' W 122°25'0 0.0
2017-Sep-24 02:59N 37°56' W 122°25'0 0.0
2017-Sep-24 02:30N 37°56' W 122°25'2 3.1
2017-Sep-24 02:00N 37°54' W 122°25'3 6.7
2017-Sep-24 01:30N 37°51' W 122°25'4 7.8
2017-Sep-24 01:00N 37°49' W 122°29'5 9.2
2017-Sep-24 00:30N 37°47' W 122°35'612.0
2017-Sep-24 00:00N 37°44' W 122°41'5 9.4
2017-Sep-23 23:30N 37°41' W 122°46'5 9.7
2017-Sep-23 23:00N 37°38' W 122°51'5 9.3
2017-Sep-23 22:30N 37°36' W 122°56'5 9.3
2017-Sep-23 22:00N 37°33' W 123°01'510.7
2017-Sep-23 21:30N 37°30' W 123°06'612.4
2017-Sep-23 21:00N 37°25' W 123°10'712.9
2017-Sep-23 20:30N 37°18' W 123°13'612.6
2017-Sep-23 20:00N 37°12' W 123°14'207 4.9
2017-Sep-22 02:00N 34°02' W 121°32'510.3
2017-Sep-22 01:30N 34°00' W 121°26'510.1
2017-Sep-22 01:00N 33°58' W 121°21'510.2
2017-Sep-22 00:30N 33°57' W 121°15'5 9.9
2017-Sep-22 00:00N 33°55' W 121°09'510.1
2017-Sep-21 23:30N 33°54' W 121°03'510.1
2017-Sep-21 23:00N 33°52' W 120°58'2 4.4
2017-Sep-21 22:30N 33°52' W 120°55'2 4.2
2017-Sep-21 22:00N 33°52' W 120°52'3 6.9
2017-Sep-21 21:30N 33°51' W 120°48'4 8.4
2017-Sep-21 21:00N 33°50' W 120°43'510.4
2017-Sep-21 20:30N 33°48' W 120°37'510.4
2017-Sep-21 20:00N 33°47' W 120°31'4 8.9
2017-Sep-21 19:30N 33°43' W 120°29'510.2
2017-Sep-21 19:00N 33°38' W 120°29'4 8.3
2017-Sep-21 18:30N 33°35' W 120°26'510.5
2017-Sep-21 17:59N 33°35' W 120°19'510.2
2017-Sep-21 17:30N 33°35' W 120°13'610.7
2017-Sep-21 16:58N 33°37' W 120°07'511.4
2017-Sep-21 16:30N 33°38' W 120°00'713.7
2017-Sep-21 16:00N 33°39' W 119°52'714.1
2017-Sep-21 15:30N 33°40' W 119°44'612.4
2017-Sep-21 15:00N 33°42' W 119°37'611.7
2017-Sep-21 14:30N 33°44' W 119°30'611.7
2017-Sep-21 14:00N 33°45' W 119°24'711.7
2017-Sep-21 13:27N 33°47' W 119°16'512.1
2017-Sep-21 13:00N 33°48' W 119°10'611.4
2017-Sep-21 12:30N 33°49' W 119°03'611.3
2017-Sep-21 12:00N 33°48' W 118°56'611.0
2017-Sep-21 11:30N 33°46' W 118°50'510.9
2017-Sep-21 11:00N 33°45' W 118°43'510.3
2017-Sep-21 10:30N 33°50' W 118°40'611.5
2017-Sep-21 10:00N 33°51' W 118°33'510.0
2017-Sep-21 09:29N 33°54' W 118°28'1 0.1
2017-Sep-21 03:40N 33°54' W 118°27'0 0.0
2017-Sep-21 03:30N 33°54' W 118°27'0 0.0
2017-Sep-21 03:00N 33°54' W 118°27'0 0.0
2017-Sep-21 02:30N 33°54' W 118°27'0 0.0
2017-Sep-21 02:00N 33°54' W 118°27'0 0.0
2017-Sep-21 01:30N 33°54' W 118°27'0 0.0
2017-Sep-21 01:00N 33°54' W 118°27'0 0.0
2017-Sep-21 00:30N 33°54' W 118°27'0 0.0
2017-Sep-21 00:00N 33°54' W 118°27'0 0.0
2017-Sep-20 23:30N 33°54' W 118°27'0 0.0
2017-Sep-20 23:00N 33°54' W 118°27'0 0.0
2017-Sep-20 22:30N 33°54' W 118°27'0 0.0
2017-Sep-20 22:00N 33°54' W 118°27'0 0.0
2017-Sep-20 21:28N 33°54' W 118°27'0 0.0
2017-Sep-20 21:00N 33°54' W 118°27'0 0.0
2017-Sep-20 20:30N 33°54' W 118°27'0 0.0
2017-Sep-20 20:00N 33°54' W 118°27'0 0.0
2017-Sep-20 19:30N 33°54' W 118°27'0 0.7
2017-Sep-20 19:00N 33°54' W 118°27'1 2.5
2017-Sep-20 18:30N 33°53' W 118°28'2 3.4
2017-Sep-20 18:00N 33°52' W 118°30'3 6.6
2017-Sep-20 17:30N 33°50' W 118°32'510.5
2017-Sep-20 17:00N 33°46' W 118°36'510.6
2017-Sep-20 16:30N 33°40' W 118°38'510.2
2017-Sep-20 16:00N 33°36' W 118°41'510.8
2017-Sep-20 15:30N 33°31' W 118°43'510.7
2017-Sep-20 15:00N 33°26' W 118°43'2710.2
2017-Sep-20 12:20N 33°06' W 118°21'411.2
2017-Sep-20 12:00N 33°05' W 118°16'611.3
2017-Sep-20 11:30N 33°05' W 118°09'611.5
2017-Sep-20 11:01N 33°05' W 118°03'511.0
2017-Sep-20 10:31N 33°05' W 117°56'2 4.3
2017-Sep-20 10:01N 33°06' W 117°54'1 1.4
2017-Sep-20 09:30N 33°06' W 117°53'1 2.3
2017-Sep-20 09:01N 33°05' W 117°51'1 2.1
2017-Sep-20 08:30N 33°05' W 117°50'1 1.4
2017-Sep-20 08:00N 33°04' W 117°50'1 1.1
2017-Sep-20 07:30N 33°04' W 117°49'1 1.1
2017-Sep-20 07:00N 33°04' W 117°49'0 1.0
2017-Sep-20 06:30N 33°03' W 117°48'1 1.4
2017-Sep-20 06:00N 33°03' W 117°48'1 1.2
2017-Sep-20 05:30N 33°03' W 117°47'1 1.2
2017-Sep-20 05:01N 33°02' W 117°47'1 1.2
2017-Sep-20 04:30N 33°02' W 117°46'1 1.2
2017-Sep-20 04:00N 33°01' W 117°46'1 1.3
2017-Sep-20 03:30N 33°01' W 117°46'1 1.3
2017-Sep-20 03:00N 33°00' W 117°45'1 1.2
2017-Sep-20 02:30N 32°60' W 117°45'1 1.2
2017-Sep-20 02:00N 32°59' W 117°44'1 1.1
2017-Sep-20 01:31N 32°59' W 117°44'0 0.9
2017-Sep-20 01:01N 32°58' W 117°44'0 0.8
2017-Sep-20 00:30N 32°58' W 117°43'0 0.9
2017-Sep-20 00:00N 32°58' W 117°43'1 1.5
2017-Sep-19 23:31N 32°57' W 117°43'1 1.2
2017-Sep-19 23:01N 32°57' W 117°44'1 1.0
2017-Sep-19 22:30N 32°57' W 117°45'0 0.8
2017-Sep-19 22:00N 32°57' W 117°45'1 1.0
2017-Sep-19 21:30N 32°57' W 117°46'1 1.1
2017-Sep-19 21:01N 32°57' W 117°46'1 1.3
2017-Sep-19 20:31N 32°58' W 117°47'1 1.2
2017-Sep-19 20:00N 32°58' W 117°48'1 1.3
2017-Sep-19 19:31N 32°58' W 117°48'1 1.1
2017-Sep-19 19:00N 32°58' W 117°49'1 1.2
2017-Sep-19 18:30N 32°59' W 117°50'1 1.1
2017-Sep-19 18:00N 32°59' W 117°50'0 0.9
2017-Sep-19 17:30N 32°59' W 117°51'0 0.8
2017-Sep-19 17:00N 32°59' W 117°51'0 0.8
2017-Sep-19 16:30N 32°59' W 117°52'0 0.5
2017-Sep-19 16:00N 32°59' W 117°52'0 0.5
2017-Sep-19 15:30N 32°58' W 117°52'0 0.6
2017-Sep-19 15:01N 32°59' W 117°53'1 2.2
2017-Sep-19 14:31N 32°59' W 117°53'2 4.4
2017-Sep-19 14:00N 33°01' W 117°55'2 4.6
2017-Sep-19 13:31N 33°04' W 117°55'2 4.9
2017-Sep-19 13:01N 33°06' W 117°57'3 6.4
2017-Sep-19 12:30N 33°09' W 117°58'2 3.8
2017-Sep-19 12:00N 33°11' W 117°58'0 0.1
2017-Sep-19 11:30N 33°11' W 117°58'0 0.2
2017-Sep-19 11:01N 33°11' W 117°58'0 0.9
2017-Sep-19 10:30N 33°11' W 117°59'510.3
2017-Sep-19 10:00N 33°07' W 118°04'5 9.8
2017-Sep-19 09:30N 33°05' W 118°09'510.3
2017-Sep-19 09:01N 33°05' W 118°15'5 9.9
2017-Sep-19 08:30N 33°06' W 118°21'510.0
2017-Sep-19 08:00N 33°08' W 118°26'610.0
2017-Sep-19 07:24N 33°11' W 118°33'510.1
2017-Sep-19 06:56N 33°13' W 118°38'4 9.8
2017-Sep-19 06:29N 33°14' W 118°43'510.3
2017-Sep-19 06:00N 33°14' W 118°49'5 9.6
2017-Sep-19 05:29N 33°12' W 118°54'510.1
2017-Sep-19 05:00N 33°10' W 118°59'510.2
2017-Sep-19 04:31N 33°07' W 119°04'5 9.9
2017-Sep-19 04:00N 33°04' W 119°09'510.3
2017-Sep-19 03:31N 33°01' W 119°14'510.1
2017-Sep-19 03:00N 32°59' W 119°19'5 9.8
2017-Sep-19 02:30N 32°56' W 119°24'5 9.1
2017-Sep-19 01:59N 32°56' W 119°30'5 9.9
2017-Sep-19 01:31N 32°58' W 119°35'510.2
2017-Sep-19 01:00N 32°59' W 119°41'1215.0
2017-Sep-19 00:11N 33°02' W 119°56'411.9
2017-Sep-18 23:49N 33°03' W 120°00'410.6
2017-Sep-18 23:25N 33°06' W 120°04'3 6.8
2017-Sep-18 23:00N 33°07' W 120°07'5 7.4
2017-Sep-18 22:17N 33°11' W 120°12'1 2.9
2017-Sep-18 22:00N 33°12' W 120°12'1 2.1
2017-Sep-18 21:30N 33°12' W 120°13'2 4.2
2017-Sep-18 21:00N 33°14' W 120°15'713.5
2017-Sep-18 20:31N 33°19' W 120°21'714.0
2017-Sep-18 20:00N 33°24' W 120°26'713.9
2017-Sep-18 19:30N 33°29' W 120°32'612.6
2017-Sep-18 19:00N 33°33' W 120°37'610.8
2017-Sep-18 18:30N 33°38' W 120°42'612.5
2017-Sep-18 18:01N 33°42' W 120°47'713.8
2017-Sep-18 17:30N 33°47' W 120°53'510.2
2017-Sep-18 16:58N 33°52' W 120°56'611.7
2017-Sep-18 16:30N 33°56' W 120°59'815.6
2017-Sep-18 16:00N 34°03' W 121°04'815.6
2017-Sep-18 15:31N 34°10' W 121°09'815.5
2017-Sep-18 15:00N 34°16' W 121°14'715.1
2017-Sep-18 14:30N 34°23' W 121°18'815.0
2017-Sep-18 14:00N 34°29' W 121°23'815.5
2017-Sep-18 13:31N 34°36' W 121°28'815.4
2017-Sep-18 13:00N 34°42' W 121°33'715.0
2017-Sep-18 12:31N 34°49' W 121°37'815.1
2017-Sep-18 12:00N 34°56' W 121°42'815.1
2017-Sep-18 11:30N 35°02' W 121°47'815.1
2017-Sep-18 11:01N 35°09' W 121°51'815.0
2017-Sep-18 10:30N 35°15' W 121°56'815.2
2017-Sep-18 09:58N 35°22' W 122°01'715.6
2017-Sep-18 09:30N 35°28' W 122°05'12415.4
2017-Sep-18 01:25N 37°21' W 123°11'615.3
2017-Sep-18 01:00N 37°27' W 123°08'714.0
2017-Sep-18 00:30N 37°33' W 123°04'5 9.3
2017-Sep-18 00:00N 37°36' W 122°60'5 9.4
2017-Sep-17 23:30N 37°39' W 122°55'4 7.2
2017-Sep-17 23:00N 37°41' W 122°51'5 9.7
2017-Sep-17 22:30N 37°43' W 122°46'4 8.1
2017-Sep-17 22:00N 37°46' W 122°42'5 9.4
2017-Sep-17 21:31N 37°47' W 122°36'714.2
2017-Sep-17 21:00N 37°50' W 122°28'4 7.3
2017-Sep-17 20:30N 37°53' W 122°25'3 5.4
2017-Sep-17 19:58N 37°56' W 122°25'0 0.1
2017-Sep-17 19:28N 37°56' W 122°25'0 0.0
2017-Sep-17 18:55N 37°56' W 122°25'0 0.0
2017-Sep-17 18:28N 37°56' W 122°25'0 0.0
2017-Sep-17 17:58N 37°56' W 122°25'0 0.0
2017-Sep-17 17:28N 37°56' W 122°25'0 0.0
2017-Sep-17 16:58N 37°56' W 122°25'0 0.0
2017-Sep-17 16:28N 37°56' W 122°25'0 0.0
2017-Sep-17 15:58N 37°56' W 122°25'0 0.0
2017-Sep-17 15:28N 37°56' W 122°25'0 0.0
2017-Sep-17 14:43N 37°56' W 122°25'0 0.0
2017-Sep-17 14:28N 37°56' W 122°25'0 0.0
2017-Sep-17 13:58N 37°56' W 122°25'0 0.0
2017-Sep-17 13:28N 37°56' W 122°25'0 0.0
2017-Sep-17 12:58N 37°56' W 122°25'0 0.0
2017-Sep-17 12:28N 37°56' W 122°25'0 0.0
2017-Sep-17 11:58N 37°56' W 122°25'0 0.0
2017-Sep-17 11:28N 37°56' W 122°25'0 0.0
2017-Sep-17 10:52N 37°56' W 122°25'0 0.0
2017-Sep-17 10:28N 37°56' W 122°25'0 0.0
2017-Sep-17 09:58N 37°56' W 122°25'0 0.0
2017-Sep-17 09:28N 37°56' W 122°25'0 0.0
2017-Sep-17 08:58N 37°56' W 122°25'0 0.0
2017-Sep-17 08:28N 37°56' W 122°25'0 0.0
2017-Sep-17 07:58N 37°56' W 122°25'0 0.0
2017-Sep-17 07:25N 37°56' W 122°25'0 0.0
2017-Sep-17 06:58N 37°56' W 122°25'0 0.0
2017-Sep-17 06:28N 37°56' W 122°25'0 0.0
2017-Sep-17 05:55N 37°56' W 122°25'0 0.0
2017-Sep-17 05:28N 37°56' W 122°25'0 0.0
2017-Sep-17 04:52N 37°56' W 122°25'0 0.0
2017-Sep-17 04:28N 37°56' W 122°25'0 0.0
2017-Sep-17 03:58N 37°56' W 122°25'0 0.0
2017-Sep-17 03:22N 37°56' W 122°25'0 0.0
2017-Sep-17 02:58N 37°56' W 122°25'0 0.0
2017-Sep-17 02:25N 37°56' W 122°25'0 0.0
2017-Sep-17 01:58N 37°56' W 122°25'0 0.0
2017-Sep-17 01:22N 37°56' W 122°25'0 0.0
2017-Sep-17 00:58N 37°56' W 122°25'0 0.0
2017-Sep-17 00:22N 37°56' W 122°25'0 0.0
2017-Sep-16 23:58N 37°56' W 122°25'0 0.0
2017-Sep-16 23:28N 37°56' W 122°25'0 0.0
2017-Sep-16 22:58N 37°56' W 122°25'0 0.0
2017-Sep-16 22:22N 37°56' W 122°25'0 0.0
2017-Sep-16 21:58N 37°56' W 122°25'0 0.0
2017-Sep-16 21:25N 37°56' W 122°25'0 0.0
2017-Sep-16 20:58N 37°56' W 122°25'0 0.0
2017-Sep-16 20:25N 37°56' W 122°25'0 0.0
2017-Sep-16 19:58N 37°56' W 122°25'0 0.0
2017-Sep-16 19:28N 37°56' W 122°25'0 0.0
2017-Sep-16 18:58N 37°56' W 122°25'0 0.0
2017-Sep-16 18:28N 37°56' W 122°25'0 0.0
2017-Sep-16 17:58N 37°56' W 122°25'0 0.0
2017-Sep-16 17:28N 37°56' W 122°25'0 0.0
2017-Sep-16 16:58N 37°56' W 122°25'0 0.0
2017-Sep-16 16:30N 37°56' W 122°25'0 0.7
2017-Sep-16 16:00N 37°55' W 122°25'3 6.5
2017-Sep-16 15:30N 37°52' W 122°25'4 7.8
2017-Sep-16 15:00N 37°49' W 122°28'612.8
2017-Sep-16 14:30N 37°47' W 122°36'611.8
2017-Sep-16 14:00N 37°44' W 122°42'5 9.5
2017-Sep-16 13:30N 37°41' W 122°47'5 9.7
2017-Sep-16 13:00N 37°38' W 122°52'5 9.9
2017-Sep-16 12:30N 37°35' W 122°57'5 9.6
2017-Sep-16 12:00N 37°33' W 123°02'612.4
2017-Sep-16 11:31N 37°29' W 123°08'713.5
2017-Sep-16 11:00N 37°23' W 123°11'713.8
2017-Sep-16 10:30N 37°16' W 123°14'713.6
2017-Sep-16 10:00N 37°09' W 123°16'713.5
2017-Sep-16 09:30N 37°03' W 123°19'713.4
2017-Sep-16 09:00N 36°57' W 123°21'612.5
2017-Sep-16 08:30N 36°51' W 123°23'812.7
2017-Sep-16 07:55N 36°44' W 123°27'712.6
2017-Sep-16 07:19N 36°37' W 123°31'22 3.4
2017-Sep-16 00:54N 36°18' W 123°44'9 1.0
2017-Sep-15 15:34N 36°27' W 123°42'0 1.3
2017-Sep-15 15:25N 36°27' W 123°42'1 1.3
2017-Sep-15 14:59N 36°27' W 123°42'1 1.4
2017-Sep-15 14:30N 36°28' W 123°42'1 1.3
2017-Sep-15 14:00N 36°29' W 123°42'1 1.1
2017-Sep-15 13:30N 36°29' W 123°42'1 1.1
2017-Sep-15 13:00N 36°30' W 123°41'1 1.4
2017-Sep-15 12:30N 36°30' W 123°41'1 1.5
2017-Sep-15 12:00N 36°31' W 123°40'1 1.6
2017-Sep-15 11:22N 36°32' W 123°39'  

Dump ship's entire track history